Time;durP1;ratioP1;P1;durP2;ratioP2;P2;SDS_P1;SDS_P2;PMS_P1;PMS_P2;Temp;Humidity;BMP_temperature;BMP_pressure;BME280_temperature;BME280_humidity;BME280_pressure;Samples;Min_cycle;Max_cycle;Signal;HPM_P1;HPM_P2
2023/03/23 00:01:26;;;;;;;14.02;7.00;;;11.50;99.90;;;;;;5072114;28;20592;-79
2023/03/23 00:03:56;;;;;;;12.52;7.38;;;11.40;99.90;;;;;;5089508;28;20493;-79
2023/03/23 00:06:24;;;;;;;13.20;7.22;;;11.90;99.90;;;;;;5052588;28;20467;-79
2023/03/23 00:08:56;;;;;;;13.75;6.90;;;11.50;99.90;;;;;;5075249;28;20044;-79
2023/03/23 00:11:23;;;;;;;13.93;7.07;;;11.50;99.90;;;;;;5080436;28;20527;-79
2023/03/23 00:13:51;;;;;;;14.85;6.90;;;11.80;99.90;;;;;;5093927;28;20082;-79
2023/03/23 00:16:18;;;;;;;9.70;6.55;;;11.50;99.90;;;;;;5094050;28;20036;-79
2023/03/23 00:18:53;;;;;;;13.02;6.78;;;11.50;99.90;;;;;;5065662;28;20047;-79
2023/03/23 00:21:25;;;;;;;12.40;6.85;;;11.50;99.90;;;;;;5060387;28;20032;-79
2023/03/23 00:23:51;;;;;;;12.40;6.57;;;11.50;99.90;;;;;;5097642;28;20085;-79
2023/03/23 00:26:16;;;;;;;19.10;7.00;;;11.50;99.90;;;;;;5097625;28;20453;-79
2023/03/23 00:28:42;;;;;;;11.52;6.93;;;11.50;99.90;;;;;;5084758;28;20046;-79
2023/03/23 00:31:35;;;;;;;9.52;6.40;;;11.50;99.90;;;;;;5099505;28;20119;-80
2023/03/23 00:34:03;;;;;;;9.75;5.60;;;11.50;99.90;;;;;;5056865;28;20032;-79
2023/03/23 00:36:31;;;;;;;12.05;6.32;;;11.40;99.90;;;;;;5099796;28;20531;-79
2023/03/23 00:38:59;;;;;;;12.52;6.70;;;11.70;99.90;;;;;;5087735;28;20036;-79
2023/03/23 00:41:28;;;;;;;9.52;5.60;;;11.40;99.90;;;;;;5082144;28;20055;-79
2023/03/23 00:43:57;;;;;;;10.95;5.72;;;11.40;99.90;;;;;;5066153;28;20085;-78
2023/03/23 00:46:24;;;;;;;12.10;5.60;;;11.40;99.90;;;;;;5095718;28;20446;-78
2023/03/23 00:48:51;;;;;;;10.07;5.90;;;11.40;99.90;;;;;;5087820;28;20036;-79
2023/03/23 00:51:20;;;;;;;11.30;5.35;;;11.40;99.90;;;;;;5097363;28;20040;-79
2023/03/23 00:53:47;;;;;;;10.50;5.05;;;11.90;99.90;;;;;;5076794;28;20628;-79
2023/03/23 00:56:15;;;;;;;9.07;4.45;;;11.30;99.90;;;;;;5066092;28;20051;-80
2023/03/23 00:58:41;;;;;;;8.18;4.55;;;11.40;99.90;;;;;;5087620;28;20111;-79
2023/03/23 01:01:07;;;;;;;7.85;4.43;;;11.40;99.90;;;;;;5087731;28;20059;-79
2023/03/23 01:03:33;;;;;;;8.82;4.60;;;11.40;99.90;;;;;;5095235;28;20034;-80
2023/03/23 01:06:12;;;;;;;8.27;4.72;;;12.00;99.90;;;;;;5078410;28;20036;-80
2023/03/23 01:08:44;;;;;;;10.00;5.30;;;11.80;99.90;;;;;;5091461;28;20071;-79
2023/03/23 01:11:14;;;;;;;9.13;4.55;;;11.40;99.90;;;;;;5096145;28;20565;-79
2023/03/23 01:13:43;;;;;;;9.98;4.65;;;11.50;99.90;;;;;;5096745;28;20031;-79
2023/03/23 01:16:10;;;;;;;10.32;4.00;;;11.50;99.90;;;;;;5061223;28;20040;-80
2023/03/23 01:18:37;;;;;;;9.10;3.90;;;11.50;99.90;;;;;;5085555;28;20478;-79
2023/03/23 01:21:11;;;;;;;8.60;3.63;;;11.50;99.90;;;;;;5083103;28;20043;-80
2023/03/23 01:23:38;;;;;;;8.57;4.20;;;11.50;99.90;;;;;;5112950;28;20040;-80
2023/03/23 01:26:16;;;;;;;8.85;3.70;;;11.50;99.90;;;;;;5086300;28;20496;-80
2023/03/23 01:28:42;;;;;;;7.45;3.88;;;11.50;99.90;;;;;;5103198;28;20075;-80
2023/03/23 01:31:12;;;;;;;5.57;3.33;;;12.40;99.90;;;;;;5073103;28;20043;-80
2023/03/23 01:33:39;;;;;;;8.48;4.18;;;11.50;99.90;;;;;;5096871;28;20426;-80
2023/03/23 01:36:17;;;;;;;9.40;4.43;;;11.50;99.90;;;;;;5067542;28;20049;-80
2023/03/23 01:38:49;;;;;;;8.70;3.92;;;11.50;99.90;;;;;;5089000;28;20036;-80
2023/03/23 01:41:16;;;;;;;9.88;4.50;;;11.50;99.90;;;;;;5101295;28;20063;-80
2023/03/23 01:43:54;;;;;;;7.35;4.13;;;11.50;99.90;;;;;;5097255;28;20040;-80
2023/03/23 01:46:22;;;;;;;8.40;4.47;;;11.90;99.90;;;;;;5090841;28;20042;-80
2023/03/23 01:48:50;;;;;;;7.05;4.00;;;11.60;99.90;;;;;;5093779;28;20036;-80
2023/03/23 01:51:18;;;;;;;9.02;4.80;;;11.60;99.90;;;;;;5090652;28;20040;-80
2023/03/23 01:53:54;;;;;;;7.82;4.07;;;12.20;99.90;;;;;;5087524;28;20043;-80
2023/03/23 01:56:24;;;;;;;8.00;4.10;;;12.60;99.90;;;;;;5095334;28;20493;-81
2023/03/23 01:58:52;;;;;;;7.18;4.20;;;12.20;99.90;;;;;;5080547;28;20051;-80
2023/03/23 02:01:22;;;;;;;9.98;3.70;;;11.50;99.90;;;;;;5094185;28;20162;-80
2023/03/23 02:03:50;;;;;;;7.95;3.80;;;11.60;99.90;;;;;;5069985;28;20044;-80
2023/03/23 02:06:17;;;;;;;9.60;3.88;;;11.50;99.90;;;;;;5060822;28;20514;-80
2023/03/23 02:08:44;;;;;;;8.10;3.97;;;11.50;99.90;;;;;;5081346;28;20387;-80
2023/03/23 02:11:18;;;;;;;7.80;3.90;;;11.50;99.90;;;;;;5072407;28;20119;-80
2023/03/23 02:13:45;;;;;;;8.88;4.20;;;11.40;99.90;;;;;;5094151;28;20082;-80
2023/03/23 02:16:47;;;;;;;8.90;3.75;;;11.50;99.90;;;;;;5085611;28;20039;-80
2023/03/23 02:19:50;;;;;;;11.30;4.03;;;11.50;99.90;;;;;;5095363;28;20044;-80
2023/03/23 02:22:36;;;;;;;8.43;3.80;;;11.50;99.90;;;;;;5066321;28;20375;-80
2023/03/23 02:25:15;;;;;;;8.50;3.72;;;11.40;99.90;;;;;;5103314;28;20031;-79
2023/03/23 02:27:55;;;;;;;7.57;3.70;;;11.40;99.90;;;;;;5080018;28;20024;-80
2023/03/23 02:30:37;;;;;;;7.70;3.65;;;12.20;99.90;;;;;;5093885;28;20043;-80
2023/03/23 02:33:18;;;;;;;8.02;3.65;;;11.40;99.90;;;;;;5079014;28;20047;-80
2023/03/23 02:35:59;;;;;;;6.13;3.13;;;11.70;99.90;;;;;;5066164;28;20048;-80
2023/03/23 02:39:05;;;;;;;7.78;3.35;;;11.40;99.90;;;;;;5084909;28;20032;-79
2023/03/23 02:41:36;;;;;;;6.28;3.30;;;11.40;99.90;;;;;;5052774;28;20079;-79
2023/03/23 02:44:03;;;;;;;8.18;3.83;;;11.50;99.90;;;;;;5092675;28;20035;-79
2023/03/23 02:46:31;;;;;;;8.85;3.30;;;11.40;99.90;;;;;;5069020;28;20043;-79
2023/03/23 02:48:58;;;;;;;7.43;3.55;;;12.20;99.90;;;;;;5092596;28;20028;-79
2023/03/23 02:51:26;;;;;;;7.10;3.63;;;11.40;99.90;;;;;;5092749;28;20040;-79
2023/03/23 02:53:54;;;;;;;7.90;4.18;;;12.00;99.90;;;;;;5068433;28;20131;-79
2023/03/23 02:56:23;;;;;;;9.15;3.75;;;11.30;99.90;;;;;;5090346;28;20496;-79
2023/03/23 02:58:48;;;;;;;7.93;3.97;;;11.40;99.90;;;;;;5082325;28;20103;-79
2023/03/23 03:01:35;;;;;;;7.88;3.42;;;11.40;99.90;;;;;;5083718;28;20047;-79
2023/03/23 03:04:16;;;;;;;6.70;3.88;;;11.40;99.90;;;;;;5070492;28;20437;-79
2023/03/23 03:06:50;;;;;;;8.98;4.22;;;11.40;99.90;;;;;;5060535;28;20058;-79
2023/03/23 03:09:25;;;;;;;7.28;4.22;;;11.40;99.90;;;;;;5075358;28;20044;-79
2023/03/23 03:11:56;;;;;;;8.55;3.92;;;12.20;99.90;;;;;;5088205;28;20046;-79
2023/03/23 03:14:37;;;;;;;6.80;3.72;;;11.40;99.90;;;;;;5084785;28;20075;-79
2023/03/23 03:17:15;;;;;;;7.93;4.20;;;11.50;99.90;;;;;;5068504;28;20040;-79
2023/03/23 03:19:47;;;;;;;7.35;4.07;;;11.50;99.90;;;;;;5078232;28;20068;-80
2023/03/23 03:22:13;;;;;;;8.70;3.63;;;11.40;99.90;;;;;;5093388;28;20051;-80
2023/03/23 03:24:43;;;;;;;7.95;4.00;;;11.40;99.90;;;;;;5071180;28;20043;-79
2023/03/23 03:27:16;;;;;;;5.53;3.60;;;11.40;99.90;;;;;;5089839;28;20036;-79
2023/03/23 03:29:47;;;;;;;7.78;4.15;;;11.40;99.90;;;;;;5089492;28;20319;-79
2023/03/23 03:32:19;;;;;;;7.43;4.65;;;11.90;99.90;;;;;;5092177;28;20044;-79
2023/03/23 03:34:47;;;;;;;6.57;3.88;;;11.50;99.90;;;;;;5086310;28;20065;-79
2023/03/23 03:37:13;;;;;;;7.35;4.35;;;11.50;99.90;;;;;;5068605;28;20036;-79
2023/03/23 03:39:39;;;;;;;7.63;4.60;;;11.40;99.90;;;;;;5078899;28;20517;-80
2023/03/23 03:42:05;;;;;;;8.02;4.13;;;11.50;99.90;;;;;;5073415;28;20040;-80
2023/03/23 03:44:32;;;;;;;9.63;3.95;;;11.80;99.90;;;;;;5087447;28;20032;-79
2023/03/23 03:46:57;;;;;;;8.63;4.95;;;11.40;99.90;;;;;;5075915;28;20123;-80
2023/03/23 03:49:23;;;;;;;6.18;4.03;;;11.50;99.90;;;;;;5085218;28;20075;-79
2023/03/23 03:51:49;;;;;;;7.45;3.80;;;11.50;99.90;;;;;;5093342;28;20035;-79
2023/03/23 03:54:16;;;;;;;7.10;4.03;;;12.30;99.90;;;;;;5085362;28;20115;-80
2023/03/23 03:56:42;;;;;;;10.63;4.40;;;11.40;99.90;;;;;;5089891;28;20442;-80
2023/03/23 03:59:09;;;;;;;8.82;4.55;;;11.40;99.90;;;;;;5059267;28;20127;-79
2023/03/23 04:01:38;;;;;;;7.68;4.30;;;11.50;99.90;;;;;;5057226;28;20126;-80
2023/03/23 04:04:06;;;;;;;8.57;4.75;;;11.50;99.90;;;;;;5096252;28;20036;-80
2023/03/23 04:06:35;;;;;;;8.30;4.53;;;11.10;99.90;;;;;;5088714;28;20048;-79
2023/03/23 04:09:05;;;;;;;6.97;4.82;;;11.60;99.90;;;;;;5097454;28;20412;-79
2023/03/23 04:11:31;;;;;;;8.90;4.47;;;11.60;99.90;;;;;;5087132;28;20412;-79
2023/03/23 04:14:02;;;;;;;7.75;4.43;;;11.60;99.90;;;;;;5080298;28;20058;-79
2023/03/23 04:16:29;;;;;;;6.63;4.40;;;11.90;99.90;;;;;;5096742;28;20036;-78
2023/03/23 04:18:56;;;;;;;6.68;3.97;;;11.60;99.90;;;;;;5100648;28;20036;-78
2023/03/23 04:21:21;;;;;;;9.75;4.55;;;11.60;99.90;;;;;;5080749;28;20303;-78
2023/03/23 04:23:47;;;;;;;8.73;5.20;;;11.60;99.90;;;;;;5094388;28;20071;-79
2023/03/23 04:26:12;;;;;;;7.93;4.43;;;11.90;99.90;;;;;;5084425;28;20043;-79
2023/03/23 04:28:39;;;;;;;6.68;4.05;;;11.70;99.90;;;;;;5076504;28;20032;-80
2023/03/23 04:31:04;;;;;;;10.82;4.90;;;12.50;99.90;;;;;;5079408;28;20131;-79
2023/03/23 04:33:30;;;;;;;7.35;4.13;;;12.20;99.90;;;;;;5082020;28;20075;-79
2023/03/23 04:36:00;;;;;;;9.90;5.15;;;12.60;99.90;;;;;;5082790;28;20109;-80
2023/03/23 04:38:27;;;;;;;8.32;4.38;;;11.30;99.90;;;;;;5082957;28;20040;-80
2023/03/23 04:40:53;;;;;;;8.02;4.97;;;11.70;99.90;;;;;;5071182;28;20028;-79
2023/03/23 04:43:22;;;;;;;7.53;4.40;;;11.70;99.90;;;;;;5077119;28;20060;-80
2023/03/23 04:45:55;;;;;;;9.15;4.45;;;12.20;99.90;;;;;;5093680;28;20048;-80
2023/03/23 04:48:29;;;;;;;9.15;4.28;;;12.90;99.90;;;;;;5079417;28;20067;-81
2023/03/23 04:50:55;;;;;;;8.23;4.53;;;11.70;99.90;;;;;;5086595;28;20040;-81
2023/03/23 04:53:22;;;;;;;8.75;4.28;;;10.60;99.90;;;;;;5094576;28;20135;-81
2023/03/23 04:55:49;;;;;;;12.65;5.00;;;11.40;99.90;;;;;;5097833;28;20071;-81
2023/03/23 04:58:16;;;;;;;9.80;4.40;;;11.60;99.90;;;;;;5070616;28;20044;-80
2023/03/23 05:00:43;;;;;;;9.80;5.00;;;11.50;99.90;;;;;;5094652;28;20092;-80
2023/03/23 05:03:09;;;;;;;11.60;5.13;;;11.40;99.90;;;;;;5092917;28;20036;-79
2023/03/23 05:05:36;;;;;;;27.33;5.88;;;11.40;99.90;;;;;;5056962;28;20040;-77
2023/03/23 05:08:02;;;;;;;9.13;4.28;;;11.40;99.90;;;;;;5073013;28;20074;-77
2023/03/23 05:10:29;;;;;;;8.20;2.80;;;11.30;99.90;;;;;;5093534;28;20479;-79
2023/03/23 05:12:55;;;;;;;7.50;3.97;;;11.30;99.90;;;;;;5085362;28;20058;-78
2023/03/23 05:15:22;;;;;;;8.50;4.13;;;11.30;99.90;;;;;;5066950;28;20032;-78
2023/03/23 05:17:52;;;;;;;6.97;3.40;;;11.30;99.90;;;;;;5087088;28;20059;-79
2023/03/23 05:20:21;;;;;;;13.30;4.85;;;11.10;99.90;;;;;;5102618;28;20430;-77
2023/03/23 05:22:49;;;;;;;13.88;4.60;;;11.10;99.90;;;;;;5060705;28;20540;-79
2023/03/23 05:25:15;;;;;;;10.55;4.10;;;11.00;99.90;;;;;;5078851;28;20031;-78
2023/03/23 05:27:43;;;;;;;8.82;3.90;;;11.00;99.90;;;;;;5078785;28;20042;-78
2023/03/23 05:30:15;;;;;;;9.68;4.00;;;11.10;99.90;;;;;;5074693;28;20121;-78
2023/03/23 05:32:40;;;;;;;11.10;4.20;;;11.10;99.90;;;;;;5071373;28;20188;-78
2023/03/23 05:35:07;;;;;;;6.18;2.97;;;11.10;99.90;;;;;;5090191;28;20044;-76
2023/03/23 05:37:33;;;;;;;9.05;3.42;;;11.10;99.90;;;;;;5058478;28;20127;-78
2023/03/23 05:40:05;;;;;;;6.53;2.85;;;11.30;99.90;;;;;;5095422;28;20056;-78
2023/03/23 05:42:37;;;;;;;;;;;11.10;99.90;;;;;;5093645;28;20081;-78
2023/03/23 05:45:03;;;;;;;7.63;2.63;;;11.10;99.90;;;;;;5090451;28;20021;-78
2023/03/23 05:47:30;;;;;;;5.95;2.67;;;11.10;99.90;;;;;;5088591;28;20127;-78
2023/03/23 05:49:57;;;;;;;7.25;2.47;;;11.10;99.90;;;;;;5091847;28;20042;-78
2023/03/23 05:52:24;;;;;;;5.63;2.35;;;11.20;99.90;;;;;;5069960;28;20040;-77
2023/03/23 05:54:50;;;;;;;7.65;2.60;;;11.10;99.90;;;;;;5074343;28;20055;-77
2023/03/23 05:57:17;;;;;;;10.55;2.20;;;11.10;99.90;;;;;;5081977;28;20098;-78
2023/03/23 05:59:43;;;;;;;6.35;2.10;;;11.00;99.90;;;;;;5097342;28;20092;-78
2023/03/23 06:02:10;;;;;;;7.50;2.67;;;11.00;99.90;;;;;;5078453;28;20052;-78
2023/03/23 06:04:37;;;;;;;6.93;2.47;;;11.00;99.90;;;;;;5073964;28;20088;-78
2023/03/23 06:07:04;;;;;;;6.25;2.45;;;11.90;99.90;;;;;;5098548;28;20044;-78
2023/03/23 06:09:30;;;;;;;5.63;2.40;;;10.90;99.90;;;;;;5105948;28;20047;-78
2023/03/23 06:11:59;;;;;;;9.15;2.67;;;10.90;99.90;;;;;;5089902;28;20040;-78
2023/03/23 06:14:26;;;;;;;8.90;2.92;;;10.90;99.90;;;;;;5071247;28;20075;-78
2023/03/23 06:16:52;;;;;;;11.48;2.95;;;10.80;99.90;;;;;;5053282;28;20564;-78
2023/03/23 06:19:18;;;;;;;7.47;2.47;;;10.90;99.90;;;;;;5069120;28;20128;-78
2023/03/23 06:21:44;;;;;;;9.38;3.00;;;10.80;99.90;;;;;;5070261;28;20086;-78
2023/03/23 06:24:10;;;;;;;7.35;2.80;;;10.90;99.90;;;;;;5088776;28;20044;-78
2023/03/23 06:26:38;;;;;;;8.60;3.42;;;10.90;99.90;;;;;;5073461;28;20068;-79
2023/03/23 06:29:11;;;;;;;11.25;3.28;;;10.90;99.90;;;;;;5087154;28;20590;-78
2023/03/23 06:31:44;;;;;;;10.18;3.92;;;11.70;99.90;;;;;;5094499;28;20032;-78
2023/03/23 06:34:11;;;;;;;11.20;3.35;;;11.60;99.90;;;;;;5094476;28;20040;-78
2023/03/23 06:36:38;;;;;;;13.18;3.45;;;11.40;99.90;;;;;;5092271;28;20446;-78
2023/03/23 06:39:04;;;;;;;15.88;3.58;;;10.80;99.90;;;;;;5065135;28;20057;-78
2023/03/23 06:41:31;;;;;;;10.95;3.03;;;10.80;99.90;;;;;;5065656;28;20032;-78
2023/03/23 06:43:57;;;;;;;10.13;3.22;;;10.80;99.90;;;;;;5092737;28;20519;-78
2023/03/23 06:46:23;;;;;;;10.35;3.67;;;10.90;99.90;;;;;;5072631;28;20085;-78
2023/03/23 06:48:49;;;;;;;14.05;3.50;;;10.90;99.90;;;;;;5092957;22;20040;-63
2023/03/23 06:51:16;;;;;;;15.18;4.07;;;10.90;99.90;;;;;;5070661;28;20119;-63
2023/03/23 06:53:41;;;;;;;16.38;4.03;;;10.80;99.90;;;;;;5064232;28;20037;-63
2023/03/23 06:56:07;;;;;;;11.52;3.97;;;10.80;99.90;;;;;;5059019;28;20136;-63
2023/03/23 06:58:33;;;;;;;12.70;3.53;;;10.80;99.90;;;;;;5043239;28;20048;-63
2023/03/23 07:00:59;;;;;;;13.60;3.78;;;10.90;99.90;;;;;;5068251;28;20490;-63
2023/03/23 07:03:26;;;;;;;16.60;4.00;;;10.90;99.90;;;;;;5069361;28;20067;-63
2023/03/23 07:05:51;;;;;;;13.70;4.10;;;10.90;99.90;;;;;;5068156;28;20049;-63
2023/03/23 07:08:17;;;;;;;16.63;3.90;;;10.90;99.90;;;;;;5053282;28;20041;-63
2023/03/23 07:10:43;;;;;;;14.10;3.83;;;10.90;99.90;;;;;;5064232;28;20057;-63
2023/03/23 07:13:09;;;;;;;12.07;4.20;;;10.90;99.90;;;;;;5044460;28;20049;-63
2023/03/23 07:15:34;;;;;;;13.27;3.67;;;10.90;99.90;;;;;;5058636;28;20033;-63
2023/03/23 07:18:00;;;;;;;14.52;3.92;;;10.90;99.90;;;;;;5065819;28;20043;-64
2023/03/23 07:20:26;;;;;;;11.38;3.50;;;11.00;99.90;;;;;;5054821;28;20051;-64
2023/03/23 07:22:53;;;;;;;12.68;3.45;;;11.00;99.90;;;;;;5067584;28;20103;-64
2023/03/23 07:25:19;;;;;;;16.15;3.63;;;11.00;99.90;;;;;;5070663;28;20500;-64
2023/03/23 07:27:46;;;;;;;10.40;3.22;;;11.00;99.90;;;;;;5055765;28;20079;-65
2023/03/23 07:30:13;;;;;;;8.63;3.40;;;11.10;99.90;;;;;;5078732;28;20036;-64
2023/03/23 07:32:38;;;;;;;14.43;3.58;;;11.10;99.90;;;;;;5049850;28;20098;-65
2023/03/23 07:35:04;;;;;;;11.73;3.70;;;11.20;99.90;;;;;;5078472;28;20127;-65
2023/03/23 07:37:32;;;;;;;13.05;3.30;;;11.20;99.90;;;;;;5068161;28;20037;-65
2023/03/23 07:39:57;;;;;;;15.27;3.70;;;11.20;99.90;;;;;;5058269;28;20047;-65
2023/03/23 07:42:23;;;;;;;15.52;3.83;;;11.30;99.90;;;;;;5036460;28;20394;-65
2023/03/23 07:44:49;;;;;;;15.10;3.42;;;11.30;99.90;;;;;;5050016;28;20045;-65
2023/03/23 07:47:15;;;;;;;11.82;3.10;;;11.30;99.90;;;;;;5075422;28;20048;-65
2023/03/23 07:49:40;;;;;;;11.75;3.60;;;11.30;99.90;;;;;;5045611;28;20044;-65
2023/03/23 07:52:06;;;;;;;13.32;3.58;;;11.40;99.90;;;;;;5055861;28;20052;-65
2023/03/23 07:54:32;;;;;;;14.52;3.70;;;11.40;99.90;;;;;;5039969;28;20048;-64
2023/03/23 07:56:57;;;;;;;13.48;4.10;;;11.40;99.90;;;;;;5060454;28;20510;-65
2023/03/23 07:59:23;;;;;;;17.42;4.40;;;11.50;99.90;;;;;;5071586;28;20038;-65
2023/03/23 08:01:49;;;;;;;15.77;4.60;;;11.50;99.90;;;;;;5046411;28;20071;-65
2023/03/23 08:04:15;;;;;;;12.32;3.50;;;11.50;99.90;;;;;;5066648;28;20380;-65
2023/03/23 08:06:40;;;;;;;15.30;4.20;;;11.50;99.90;;;;;;5062559;28;20087;-65
2023/03/23 08:09:08;;;;;;;19.67;4.43;;;11.60;99.90;;;;;;5052225;28;20045;-65
2023/03/23 08:11:38;;;;;;;16.50;4.75;;;11.60;99.90;;;;;;5066395;28;20117;-65
2023/03/23 08:14:05;;;;;;;19.63;4.38;;;11.60;99.90;;;;;;5046455;28;20414;-64
2023/03/23 08:16:31;;;;;;;11.25;3.83;;;11.60;99.90;;;;;;5062530;28;20597;-65
2023/03/23 08:18:56;;;;;;;14.60;4.53;;;11.70;99.90;;;;;;5042928;28;20478;-65
2023/03/23 08:21:22;;;;;;;18.77;5.07;;;11.60;99.90;;;;;;5060989;28;20040;-65
2023/03/23 08:23:48;;;;;;;19.70;4.78;;;11.60;99.90;;;;;;5046397;28;20048;-65
2023/03/23 08:26:15;;;;;;;13.80;4.10;;;11.60;99.90;;;;;;5052256;28;20041;-65
2023/03/23 08:28:42;;;;;;;15.23;4.93;;;11.60;99.90;;;;;;5054835;28;20052;-65
2023/03/23 08:31:09;;;;;;;16.05;4.45;;;11.50;99.90;;;;;;5057384;28;20090;-65
2023/03/23 08:33:36;;;;;;;16.70;4.55;;;11.60;99.90;;;;;;5055317;28;20068;-65
2023/03/23 08:36:02;;;;;;;13.95;4.35;;;11.50;99.90;;;;;;5049096;28;20517;-65
2023/03/23 08:38:29;;;;;;;15.38;4.53;;;11.50;99.90;;;;;;5038737;28;20060;-65
2023/03/23 08:41:04;;;;;;;13.35;4.25;;;11.50;99.90;;;;;;5029863;28;20048;-65
2023/03/23 08:43:34;;;;;;;15.80;4.95;;;11.50;99.90;;;;;;5059012;28;20037;-65
2023/03/23 08:46:00;;;;;;;13.52;4.85;;;11.50;99.90;;;;;;5047708;28;20044;-65
2023/03/23 08:48:26;;;;;;;14.15;4.60;;;11.60;99.90;;;;;;5039511;28;20052;-65
2023/03/23 08:50:52;;;;;;;17.55;4.75;;;11.60;99.90;;;;;;5048432;28;20126;-64
2023/03/23 08:53:20;;;;;;;12.57;4.15;;;11.70;99.90;;;;;;5043429;28;20114;-65
2023/03/23 08:55:47;;;;;;;14.38;4.45;;;11.60;99.90;;;;;;5059592;28;20055;-64
2023/03/23 08:58:13;;;;;;;17.98;4.50;;;11.60;99.90;;;;;;5058358;28;20103;-65
2023/03/23 09:00:39;;;;;;;14.57;4.30;;;11.60;99.90;;;;;;5059965;28;20127;-65
2023/03/23 09:03:05;;;;;;;25.13;5.45;;;11.70;99.90;;;;;;5047340;28;20565;-65
2023/03/23 09:05:30;;;;;;;17.88;5.15;;;11.70;99.90;;;;;;5056916;28;20481;-65
2023/03/23 09:08:00;;;;;;;19.67;5.35;;;11.70;99.90;;;;;;5042366;28;20040;-65
2023/03/23 09:10:29;;;;;;;17.75;4.57;;;11.70;99.90;;;;;;5043758;28;20399;-65
2023/03/23 09:12:56;;;;;;;16.73;4.90;;;11.70;99.90;;;;;;5060623;28;20036;-65
2023/03/23 09:15:22;;;;;;;15.27;4.70;;;11.70;99.90;;;;;;5034993;28;20513;-65
2023/03/23 09:17:51;;;;;;;16.80;4.60;;;11.70;99.90;;;;;;5044695;28;20276;-65
2023/03/23 09:20:20;;;;;;;19.20;5.38;;;11.70;99.90;;;;;;5059393;28;20429;-65
2023/03/23 09:22:52;;;;;;;20.10;4.75;;;11.70;99.90;;;;;;5061021;28;20292;-65
2023/03/23 09:25:21;;;;;;;16.73;4.50;;;11.70;99.90;;;;;;5058883;28;20050;-65
2023/03/23 09:27:53;;;;;;;11.77;4.43;;;11.80;99.90;;;;;;5047844;28;20037;-65
2023/03/23 09:30:19;;;;;;;16.65;4.90;;;11.80;99.90;;;;;;5059539;28;20464;-65
2023/03/23 09:32:47;;;;;;;12.32;4.00;;;12.00;99.90;;;;;;5058863;28;20077;-65
2023/03/23 09:35:16;;;;;;;13.27;4.40;;;12.10;99.90;;;;;;5041696;28;20049;-65
2023/03/23 09:37:43;;;;;;;12.77;3.90;;;12.20;99.90;;;;;;5038583;28;20413;-65
2023/03/23 09:40:19;;;;;;;13.68;3.63;;;12.20;99.90;;;;;;5042921;28;20089;-65
2023/03/23 09:42:57;;;;;;;12.27;3.47;;;12.30;99.90;;;;;;5031820;28;20491;-65
2023/03/23 09:45:51;;;;;;;18.27;4.25;;;12.50;99.90;;;;;;5041510;28;20149;-64
2023/03/23 09:48:26;;;;;;;12.63;3.80;;;12.60;99.90;;;;;;5034932;28;20519;-65
2023/03/23 09:51:00;;;;;;;12.45;3.97;;;12.70;99.90;;;;;;5058293;28;20467;-65
2023/03/23 09:53:37;;;;;;;12.30;3.38;;;12.90;99.90;;;;;;5052807;28;20093;-65
2023/03/23 09:56:10;;;;;;;9.88;3.83;;;13.10;99.90;;;;;;5059185;28;20438;-65
2023/03/23 09:58:46;;;;;;;12.35;3.40;;;13.30;99.90;;;;;;5043711;28;20492;-65
2023/03/23 10:01:35;;;;;;;8.52;3.80;;;13.30;99.90;;;;;;5038891;28;20076;-65
2023/03/23 10:04:38;;;;;;;13.45;3.50;;;13.40;99.90;;;;;;5045625;28;20041;-65
2023/03/23 10:07:11;;;;;;;12.70;3.22;;;13.40;99.90;;;;;;5009639;28;20465;-64
2023/03/23 10:09:38;;;;;;;10.88;3.10;;;13.30;99.90;;;;;;5035121;28;20028;-64
2023/03/23 10:12:22;;;;;;;13.23;3.17;;;13.30;99.90;;;;;;5058763;28;20372;-65
2023/03/23 10:14:47;;;;;;;10.70;3.13;;;13.20;99.90;;;;;;5041603;28;20032;-65
2023/03/23 10:17:26;;;;;;;11.13;3.35;;;13.10;99.90;;;;;;5040720;28;20052;-65
2023/03/23 10:20:14;;;;;;;11.70;2.88;;;12.90;99.90;;;;;;5056543;28;20143;-65
2023/03/23 10:22:52;;;;;;;9.73;3.20;;;13.00;99.90;;;;;;5041514;28;20044;-64
2023/03/23 10:25:23;;;;;;;10.10;2.85;;;13.10;99.90;;;;;;5045690;28;20044;-65
2023/03/23 10:28:03;;;;;;;10.65;2.80;;;13.10;99.90;;;;;;5041211;28;20094;-65
2023/03/23 10:30:44;;;;;;;12.45;3.28;;;13.10;99.90;;;;;;5036948;28;20036;-65
2023/03/23 10:33:32;;;;;;;8.95;3.17;;;13.10;99.90;;;;;;5037830;28;20093;-64
2023/03/23 10:36:13;;;;;;;9.65;2.58;;;13.20;99.90;;;;;;5028525;28;20402;-64
2023/03/23 10:38:56;;;;;;;13.00;3.78;;;13.40;99.90;;;;;;5058661;28;20090;-64
2023/03/23 10:41:22;;;;;;;8.77;2.55;;;13.70;99.90;;;;;;5046780;28;20121;-65
2023/03/23 10:43:50;;;;;;;11.90;2.80;;;14.00;99.90;;;;;;5036986;28;20620;-64
2023/03/23 10:46:36;;;;;;;13.77;2.65;;;14.20;99.90;;;;;;5030244;28;20493;-64
2023/03/23 10:49:08;;;;;;;14.27;3.28;;;14.50;99.90;;;;;;5037374;28;20058;-64
2023/03/23 10:51:41;;;;;;;12.43;3.05;;;14.60;99.90;;;;;;5047289;28;20061;-64
2023/03/23 10:54:07;;;;;;;12.05;2.75;;;14.70;99.90;;;;;;5043870;28;20082;-65
2023/03/23 10:56:39;;;;;;;9.75;2.72;;;14.50;99.90;;;;;;5058993;28;20379;-64
2023/03/23 10:59:14;;;;;;;13.13;3.40;;;14.20;99.90;;;;;;5060445;28;20040;-64
2023/03/23 11:01:44;;;;;;;11.32;3.17;;;13.90;99.90;;;;;;5058916;28;20393;-64
2023/03/23 11:04:14;;;;;;;13.43;3.40;;;13.90;99.90;;;;;;5083200;28;20424;-65
2023/03/23 11:06:46;;;;;;;13.35;3.33;;;13.80;99.90;;;;;;5049858;28;20506;-64
2023/03/23 11:09:19;;;;;;;10.73;3.20;;;13.70;99.90;;;;;;5065911;28;20072;-64
2023/03/23 11:11:55;;;;;;;11.60;3.20;;;13.60;99.90;;;;;;5056216;28;20077;-64
2023/03/23 11:14:34;;;;;;;10.50;3.22;;;13.70;99.90;;;;;;5061552;28;20098;-64
2023/03/23 11:17:06;;;;;;;16.23;3.45;;;13.80;99.90;;;;;;5072129;28;20094;-65
2023/03/23 11:19:36;;;;;;;11.93;3.38;;;13.70;99.90;;;;;;5054283;28;20479;-64
2023/03/23 11:22:06;;;;;;;15.48;3.53;;;13.70;99.90;;;;;;5060041;28;20261;-64
2023/03/23 11:24:40;;;;;;;13.80;2.83;;;13.60;99.90;;;;;;5048529;28;20058;-64
2023/03/23 11:27:08;;;;;;;8.13;2.65;;;13.60;99.90;;;;;;5063203;28;20050;-65
2023/03/23 11:29:36;;;;;;;11.73;2.90;;;13.90;99.90;;;;;;5065072;28;20118;-64
2023/03/23 11:32:10;;;;;;;14.93;3.60;;;14.30;99.90;;;;;;5050938;28;20048;-65
2023/03/23 11:34:48;;;;;;;11.55;2.78;;;14.50;99.90;;;;;;5060824;28;20028;-64
2023/03/23 11:37:25;;;;;;;12.38;3.15;;;14.50;99.90;;;;;;5058034;28;20045;-64
2023/03/23 11:39:55;;;;;;;10.85;2.67;;;14.30;99.90;;;;;;5061270;28;20047;-64
2023/03/23 11:42:34;;;;;;;14.32;3.03;;;14.30;99.90;;;;;;5062603;28;20375;-64
2023/03/23 11:45:22;;;;;;;10.07;2.90;;;14.10;99.90;;;;;;5043387;28;20184;-64
2023/03/23 11:48:15;;;;;;;10.30;3.00;;;14.00;99.90;;;;;;5046947;28;20048;-65
2023/03/23 11:50:50;;;;;;;11.05;2.83;;;14.00;99.90;;;;;;5059591;28;20090;-64
2023/03/23 11:53:45;;;;;;;10.32;2.88;;;14.10;99.90;;;;;;5064789;28;20384;-64
2023/03/23 11:56:23;;;;;;;12.90;2.80;;;14.00;99.90;;;;;;5051121;28;20052;-65
2023/03/23 11:58:49;;;;;;;10.00;3.10;;;14.40;99.90;;;;;;5043030;28;20040;-64
2023/03/23 12:01:40;;;;;;;11.63;3.28;;;14.60;99.90;;;;;;5059830;28;20033;-64
2023/03/23 12:04:51;;;;;;;10.13;2.85;;;15.00;99.90;;;;;;5052827;28;20156;-65
2023/03/23 12:07:47;;;;;;;10.55;2.95;;;15.30;99.90;;;;;;5057200;28;20650;-64
2023/03/23 12:10:40;;;;;;;12.95;3.08;;;15.60;99.90;;;;;;5058481;28;20047;-64
2023/03/23 12:13:18;;;;;;;9.93;2.88;;;15.60;99.90;;;;;;5030043;28;20122;-65
2023/03/23 12:16:02;;;;;;;11.65;2.75;;;15.70;99.90;;;;;;5036114;28;20068;-65
2023/03/23 12:18:49;;;;;;;11.43;3.17;;;15.80;99.90;;;;;;5057565;28;20483;-64
2023/03/23 12:21:45;;;;;;;8.60;2.40;;;15.70;99.90;;;;;;5044217;28;20361;-64
2023/03/23 12:24:36;;;;;;;12.23;2.83;;;15.70;99.90;;;;;;5040869;28;20068;-65
2023/03/23 12:27:18;;;;;;;13.13;3.33;;;15.80;99.90;;;;;;5050920;28;20450;-64
2023/03/23 12:29:44;;;;;;;8.65;2.30;;;15.80;99.90;;;;;;5055448;28;20266;-64
2023/03/23 12:32:38;;;;;;;10.55;2.60;;;15.80;99.90;;;;;;5043482;28;20129;-64
2023/03/23 12:35:30;;;;;;;9.82;2.50;;;15.80;99.90;;;;;;5051820;28;20401;-65
2023/03/23 12:38:20;;;;;;;10.68;2.70;;;15.60;99.90;;;;;;5063329;28;20052;-64
2023/03/23 12:41:24;;;;;;;10.30;2.75;;;15.40;99.90;;;;;;5043358;28;20144;-64
2023/03/23 12:44:04;;;;;;;13.00;3.40;;;15.30;99.90;;;;;;5046203;28;20187;-64
2023/03/23 12:47:20;;;;;;;12.63;3.30;;;15.20;99.90;;;;;;5018815;28;20371;-65
2023/03/23 12:50:18;;;;;;;12.13;2.90;;;15.10;99.90;;;;;;5017789;22;20095;-62
2023/03/23 12:52:56;;;;;;;9.75;2.72;;;15.10;99.90;;;;;;5005474;28;20069;-64
2023/03/23 12:55:44;;;;;;;9.68;2.90;;;15.00;99.90;;;;;;5029620;28;20045;-64
2023/03/23 12:58:25;;;;;;;14.38;2.70;;;15.20;99.90;;;;;;5035222;28;20068;-65
2023/03/23 13:01:05;;;;;;;13.57;2.75;;;15.40;99.90;;;;;;5034802;28;20609;-66
2023/03/23 13:03:56;;;;;;;11.48;2.63;;;15.50;99.90;;;;;;5030997;28;20510;-66